Albaida, Spain
Current Conditions -  °F | °C
As of 5:00 AM on Thursday 27 Nov 2014 (Local Time) from LEAL Reporting Station
Few Clouds Few Clouds  
Wind Chill: 12°   Ceiling: Unl
Heat Index: 12°   Visibility: 6mi
Dew Point: 12°   Wind: 2mph
Humidity: 100%   Direction: NA
Pressure: 29.74"   Gusts: NA
Location:  38.84°N, 0.52°W
Report Text: LEAL 270400Z VRB02KT 9999 FEW014 12/12 Q1007 NOSIG
Loading
Personal Weather Stations






























Interactive Weather Map New forecast layout! Learn more

10-Day Weather Forecast

Advertisements
Track Severe Weather on mobile